createdAt,value
2023-04-08T00:00:25.110Z,30.30
2023-04-08T00:05:28.215Z,30.00
2023-04-08T00:10:32.655Z,30.00
2023-04-08T00:15:35.847Z,30.20
2023-04-08T00:20:38.940Z,30.10
2023-04-08T00:25:43.797Z,30.30
2023-04-08T00:30:47.116Z,30.70
2023-04-08T00:35:51.082Z,30.40
2023-04-08T00:40:55.718Z,30.60
2023-04-08T00:45:58.811Z,30.90
2023-04-08T00:51:02.217Z,30.90
2023-04-08T00:56:06.869Z,31.10
2023-04-08T01:01:16.043Z,31.90
2023-04-08T01:06:25.035Z,32.50
2023-04-08T01:11:33.411Z,32.60
2023-04-08T01:16:38.987Z,32.60
2023-04-08T01:21:42.523Z,31.80
2023-04-08T01:26:47.259Z,31.90
2023-04-08T01:31:51.433Z,32.30
2023-04-08T01:36:58.352Z,32.10
2023-04-08T01:42:04.015Z,32.40
2023-04-08T01:47:07.718Z,32.70
2023-04-08T01:52:11.231Z,32.30
2023-04-08T01:57:19.027Z,32.20
2023-04-08T02:02:23.436Z,33.00
2023-04-08T02:07:26.640Z,32.40
2023-04-08T02:12:31.485Z,32.30
2023-04-08T02:17:40.204Z,32.80
2023-04-08T02:22:48.935Z,32.90
2023-04-08T02:27:55.790Z,32.90
2023-04-08T02:33:00.218Z,32.90
2023-04-08T02:38:03.541Z,32.80
2023-04-08T02:43:07.968Z,32.70
2023-04-08T02:48:11.723Z,32.80
2023-04-08T02:53:14.840Z,32.70
2023-04-08T02:58:20.346Z,32.70
2023-04-08T03:03:27.801Z,33.20
2023-04-08T03:08:31.106Z,33.10
2023-04-08T03:13:35.648Z,33.30
2023-04-08T03:18:40.043Z,33.50
2023-04-08T03:23:43.099Z,33.30
2023-04-08T03:28:47.750Z,33.20
2023-04-08T03:33:51.227Z,33.60
2023-04-08T03:38:54.300Z,33.30
2023-04-08T03:43:59.750Z,33.10
2023-04-08T03:49:02.808Z,33.70
2023-04-08T03:54:06.176Z,33.20
2023-04-08T03:59:10.670Z,33.50
2023-04-08T04:04:13.910Z,33.90
2023-04-08T04:09:17.530Z,33.50
2023-04-08T04:14:21.998Z,33.60
2023-04-08T04:19:25.095Z,33.90
2023-04-08T04:24:28.157Z,33.70
2023-04-08T04:29:34.040Z,33.80
2023-04-08T04:34:37.131Z,34.80
2023-04-08T04:39:40.540Z,34.20
2023-04-08T04:44:45.034Z,34.30
2023-04-08T04:49:48.359Z,34.80
2023-04-08T04:54:51.581Z,34.60
2023-04-08T04:59:56.042Z,34.60
2023-04-08T05:04:59.187Z,35.20
2023-04-08T05:10:02.653Z,34.80
2023-04-08T05:15:08.388Z,34.80
2023-04-08T05:20:12.090Z,35.50
2023-04-08T05:25:15.211Z,35.10
2023-04-08T05:30:19.990Z,35.10
2023-04-08T05:35:23.303Z,35.80
2023-04-08T05:40:26.910Z,35.40
2023-04-08T05:45:32.439Z,35.40
2023-04-08T05:50:36.653Z,36.10
2023-04-08T05:55:39.714Z,35.60
2023-04-08T06:00:44.229Z,35.40
2023-04-08T06:05:47.298Z,35.90
2023-04-08T06:10:51.169Z,35.40
2023-04-08T06:15:55.763Z,35.50
2023-04-08T06:20:59.660Z,35.90
2023-04-08T06:26:03.133Z,35.50
2023-04-08T06:31:07.638Z,35.40
2023-04-08T06:36:11.302Z,36.10
2023-04-08T06:41:14.440Z,35.20
2023-04-08T06:46:18.907Z,35.10
2023-04-08T06:51:22.013Z,35.40
2023-04-08T06:56:26.257Z,35.20
2023-04-08T07:01:31.174Z,35.20
2023-04-08T07:06:34.300Z,35.40
2023-04-08T07:11:37.372Z,35.10
2023-04-08T07:16:41.922Z,34.90
2023-04-08T07:21:45.038Z,34.40
2023-04-08T07:26:48.126Z,34.40
2023-04-08T07:31:52.827Z,34.50
2023-04-08T07:36:55.961Z,34.40
2023-04-08T07:41:59.020Z,34.40
2023-04-08T07:47:03.528Z,34.50
2023-04-08T07:52:06.784Z,34.50
2023-04-08T07:57:09.836Z,34.50
2023-04-08T08:02:14.460Z,34.50
2023-04-08T08:07:17.598Z,34.90
2023-04-08T08:12:20.890Z,34.70
2023-04-08T08:17:27.754Z,34.60
2023-04-08T08:22:31.470Z,34.90
2023-04-08T08:27:35.000Z,34.70
2023-04-08T08:32:39.507Z,35.00
2023-04-08T08:37:42.892Z,35.40
2023-04-08T08:42:52.033Z,35.20
2023-04-08T08:47:57.649Z,36.50
2023-04-08T08:53:00.783Z,36.00
2023-04-08T08:58:04.963Z,35.50
2023-04-08T09:03:21.374Z,35.60
2023-04-08T09:08:26.252Z,37.10
2023-04-08T09:13:37.569Z,35.90
2023-04-08T09:18:44.722Z,37.00
2023-04-08T09:23:52.193Z,36.30
2023-04-08T09:29:11.432Z,36.20
2023-04-08T09:34:32.353Z,37.50
2023-04-08T09:39:35.732Z,36.70
2023-04-08T09:44:40.547Z,36.50
2023-04-08T09:49:52.393Z,36.60
2023-04-08T09:55:03.895Z,38.20
2023-04-08T10:00:11.982Z,37.20
2023-04-08T10:05:18.516Z,38.00
2023-04-08T10:10:22.096Z,37.70
2023-04-08T10:15:29.018Z,37.10
2023-04-08T10:20:51.652Z,37.80
2023-04-08T10:25:54.769Z,38.30
2023-04-08T10:30:58.697Z,37.00
2023-04-08T10:36:11.428Z,37.10
2023-04-08T10:41:21.596Z,38.60
2023-04-08T10:46:25.489Z,37.30
2023-04-08T10:51:33.866Z,37.40
2023-04-08T10:56:37.904Z,38.30
2023-04-08T11:01:42.075Z,37.60
2023-04-08T11:06:50.730Z,37.50
2023-04-08T11:11:54.844Z,38.00
2023-04-08T11:17:00.532Z,37.50
2023-04-08T11:22:07.759Z,37.60
2023-04-08T11:27:11.118Z,38.70
2023-04-08T11:32:14.369Z,37.70
2023-04-08T11:37:18.842Z,37.80
2023-04-08T11:42:28.826Z,38.00
2023-04-08T11:47:33.512Z,39.20
2023-04-08T11:52:45.946Z,38.00
2023-04-08T11:57:49.330Z,39.40
2023-04-08T12:02:53.528Z,38.00
2023-04-08T12:07:58.169Z,38.20
2023-04-08T12:13:01.269Z,38.60
2023-04-08T12:18:04.487Z,38.20
2023-04-08T12:23:09.162Z,38.20
2023-04-08T12:28:12.214Z,38.50
2023-04-08T12:33:15.668Z,38.20
2023-04-08T12:38:20.217Z,38.90
2023-04-08T12:43:23.639Z,38.60
2023-04-08T12:48:26.717Z,38.20
2023-04-08T12:53:31.162Z,38.10
2023-04-08T12:58:34.225Z,38.70
2023-04-08T13:03:37.534Z,38.40
2023-04-08T13:08:42.059Z,37.40
2023-04-08T13:13:46.479Z,37.70
2023-04-08T13:18:49.894Z,37.60
2023-04-08T13:23:54.527Z,37.40
2023-04-08T13:28:58.435Z,37.50
2023-04-08T13:34:01.829Z,37.30
2023-04-08T13:39:06.273Z,37.40
2023-04-08T13:44:09.326Z,37.80
2023-04-08T13:49:12.417Z,37.40
2023-04-08T13:54:16.884Z,37.30
2023-04-08T13:59:19.992Z,37.80
2023-04-08T14:04:23.165Z,37.50
2023-04-08T14:09:27.677Z,37.40
2023-04-08T14:14:30.766Z,38.00
2023-04-08T14:19:33.950Z,37.70
2023-04-08T14:24:38.406Z,38.50
2023-04-08T14:29:41.595Z,38.20
2023-04-08T14:34:44.724Z,37.70
2023-04-08T14:39:49.214Z,37.70
2023-04-08T14:44:52.316Z,38.10
2023-04-08T14:49:55.401Z,37.80
2023-04-08T14:55:01.963Z,37.70
2023-04-08T15:00:05.601Z,38.20
2023-04-08T15:05:09.356Z,38.00
2023-04-08T15:10:14.050Z,37.80
2023-04-08T15:15:17.170Z,38.10
2023-04-08T15:20:20.357Z,37.70
2023-04-08T15:25:24.898Z,37.70
2023-04-08T15:30:28.002Z,38.30
2023-04-08T15:35:31.363Z,38.00
2023-04-08T15:40:36.050Z,38.10
2023-04-08T15:45:44.626Z,38.50
2023-04-08T15:50:47.773Z,39.10
2023-04-08T15:55:52.231Z,38.20
2023-04-08T16:00:55.823Z,38.30
2023-04-08T16:05:58.918Z,38.10
2023-04-08T16:11:05.313Z,38.10
2023-04-08T16:16:08.858Z,38.30
2023-04-08T16:21:12.475Z,37.80
2023-04-08T16:26:17.168Z,37.90
2023-04-08T16:31:20.421Z,38.30
2023-04-08T16:36:23.531Z,38.10
2023-04-08T16:41:27.999Z,38.00
2023-04-08T16:46:31.070Z,38.30
2023-04-08T16:51:34.414Z,38.00
2023-04-08T16:56:44.302Z,38.10
2023-04-08T17:01:47.579Z,38.30
2023-04-08T17:06:51.113Z,37.90
2023-04-08T17:11:56.700Z,38.00
2023-04-08T17:16:59.825Z,38.20
2023-04-08T17:22:02.905Z,38.00
2023-04-08T17:27:07.348Z,38.00
2023-04-08T17:32:10.858Z,38.20
2023-04-08T17:37:13.951Z,37.90
2023-04-08T17:42:22.364Z,38.00
2023-04-08T17:47:25.482Z,38.10
2023-04-08T17:52:28.564Z,37.90
2023-04-08T17:57:33.026Z,37.80
2023-04-08T18:02:37.234Z,38.00
2023-04-08T18:07:40.661Z,37.90
2023-04-08T18:12:45.306Z,37.90
2023-04-08T18:17:48.475Z,38.10
2023-04-08T18:22:51.567Z,37.90
2023-04-08T18:27:56.038Z,37.90
2023-04-08T18:32:59.193Z,38.20
2023-04-08T18:38:02.303Z,37.80
2023-04-08T18:43:06.744Z,37.80
2023-04-08T18:48:09.942Z,38.10
2023-04-08T18:53:13.598Z,37.80
2023-04-08T18:58:18.135Z,37.80
2023-04-08T19:03:21.559Z,38.10
2023-04-08T19:08:24.672Z,37.80
2023-04-08T19:13:29.175Z,37.90
2023-04-08T19:18:32.313Z,38.20
2023-04-08T19:23:35.378Z,38.00
2023-04-08T19:28:39.844Z,38.00
2023-04-08T19:33:43.128Z,38.20
2023-04-08T19:38:46.269Z,38.00
2023-04-08T19:43:50.911Z,38.00
2023-04-08T19:48:56.243Z,38.20
2023-04-08T19:53:59.389Z,38.10
2023-04-08T19:59:03.877Z,38.10
2023-04-08T20:04:07.054Z,38.20
2023-04-08T20:09:10.230Z,38.00
2023-04-08T20:14:15.059Z,37.90
2023-04-08T20:19:18.121Z,38.20
2023-04-08T20:24:21.661Z,38.00
2023-04-08T20:29:26.178Z,38.20
2023-04-08T20:34:29.264Z,38.40
2023-04-08T20:39:32.417Z,38.30
2023-04-08T20:44:37.393Z,38.20
2023-04-08T20:49:42.193Z,38.50
2023-04-08T20:54:45.399Z,38.30
2023-04-08T20:59:49.871Z,38.40
2023-04-08T21:04:52.970Z,38.60
2023-04-08T21:09:56.052Z,38.40
2023-04-08T21:15:00.487Z,38.30
2023-04-08T21:20:04.392Z,38.40
2023-04-08T21:25:08.251Z,38.30
2023-04-08T21:30:13.329Z,38.50
2023-04-08T21:35:16.798Z,38.60
2023-04-08T21:40:19.924Z,38.40
2023-04-08T21:45:24.827Z,38.40
2023-04-08T21:50:28.056Z,38.60
2023-04-08T21:55:31.238Z,38.20
2023-04-08T22:00:35.690Z,38.20
2023-04-08T22:05:38.740Z,38.70
2023-04-08T22:10:42.056Z,38.40
2023-04-08T22:15:46.639Z,38.40
2023-04-08T22:20:49.784Z,38.60
2023-04-08T22:25:52.853Z,38.20
2023-04-08T22:30:57.308Z,38.30
2023-04-08T22:36:00.493Z,38.50
2023-04-08T22:41:03.625Z,38.30
2023-04-08T22:46:08.170Z,38.40
2023-04-08T22:51:11.386Z,38.60
2023-04-08T22:56:14.532Z,38.40
2023-04-08T23:01:20.857Z,38.40
2023-04-08T23:06:24.011Z,38.90
2023-04-08T23:11:27.292Z,38.60
2023-04-08T23:16:31.831Z,38.60
2023-04-08T23:21:34.933Z,38.80
2023-04-08T23:26:38.033Z,38.60
2023-04-08T23:31:42.775Z,38.60
2023-04-08T23:36:46.283Z,38.90
2023-04-08T23:41:49.364Z,39.40
2023-04-08T23:46:53.860Z,38.60
2023-04-08T23:51:56.947Z,39.00
2023-04-08T23:57:00.061Z,38.60
